createdAt,value
2023-02-13T00:00:02.435Z,28.30
2023-02-13T00:02:29.950Z,26.07
2023-02-13T00:04:57.429Z,26.80
2023-02-13T00:07:24.916Z,29.70
2023-02-13T00:09:52.379Z,26.10
2023-02-13T00:12:19.926Z,29.90
2023-02-13T00:14:47.409Z,28.13
2023-02-13T00:17:16.389Z,29.50
2023-02-13T00:19:43.954Z,28.97
2023-02-13T00:22:11.695Z,27.03
2023-02-13T00:24:39.240Z,25.67
2023-02-13T00:27:06.698Z,25.50
2023-02-13T00:29:34.187Z,26.63
2023-02-13T00:32:02.389Z,27.40
2023-02-13T00:34:31.323Z,27.27
2023-02-13T00:36:58.781Z,25.50
2023-02-13T00:39:26.408Z,25.57
2023-02-13T00:41:53.898Z,23.67
2023-02-13T00:44:21.413Z,24.73
2023-02-13T00:46:48.926Z,26.33
2023-02-13T00:49:16.418Z,27.00
2023-02-13T00:51:45.391Z,25.47
2023-02-13T00:54:12.882Z,24.97
2023-02-13T00:56:40.516Z,26.90
2023-02-13T00:59:08.589Z,26.30
2023-02-13T01:01:36.100Z,25.57
2023-02-13T01:04:04.013Z,28.07
2023-02-13T01:06:31.522Z,27.83
2023-02-13T01:09:00.384Z,28.80
2023-02-13T01:11:27.925Z,29.83
2023-02-13T01:13:55.401Z,26.30
2023-02-13T01:16:23.000Z,26.80
2023-02-13T01:18:50.547Z,33.37
2023-02-13T01:21:19.960Z,24.40
2023-02-13T01:23:47.971Z,26.20
2023-02-13T01:26:19.542Z,24.33
2023-02-13T01:28:47.288Z,26.60
2023-02-13T01:31:15.126Z,28.13
2023-02-13T01:33:42.698Z,25.27
2023-02-13T01:36:12.360Z,29.67
2023-02-13T01:38:40.031Z,26.37
2023-02-13T01:41:08.304Z,28.63
2023-02-13T01:43:50.059Z,27.00
2023-02-13T01:46:20.326Z,27.33
2023-02-13T01:48:50.488Z,25.83
2023-02-13T01:51:21.280Z,27.77
2023-02-13T01:53:53.542Z,26.13
2023-02-13T01:56:26.478Z,29.30
2023-02-13T01:58:59.221Z,27.07
2023-02-13T02:01:27.773Z,27.53
2023-02-13T02:03:59.634Z,29.47
2023-02-13T02:06:29.302Z,27.47
2023-02-13T02:09:01.687Z,29.80
2023-02-13T02:11:36.463Z,27.33
2023-02-13T02:14:05.505Z,29.00
2023-02-13T02:16:33.840Z,29.93
2023-02-13T02:19:03.190Z,31.37
2023-02-13T02:21:54.205Z,31.67
2023-02-13T02:24:55.363Z,24.87
2023-02-13T02:28:10.678Z,27.33
2023-02-13T02:31:32.360Z,32.13
2023-02-13T02:34:15.886Z,29.10
2023-02-13T02:36:59.817Z,29.10
2023-02-13T02:39:37.166Z,27.00
2023-02-13T02:42:16.594Z,24.03
2023-02-13T02:44:52.220Z,23.67
2023-02-13T02:47:42.717Z,24.33
2023-02-13T02:50:24.719Z,25.97
2023-02-13T02:53:04.240Z,23.80
2023-02-13T02:55:39.821Z,26.40
2023-02-13T02:58:32.493Z,24.50
2023-02-13T03:01:19.613Z,22.63
2023-02-13T03:04:06.173Z,21.77
2023-02-13T03:06:41.202Z,23.33
2023-02-13T03:09:31.429Z,23.77
2023-02-13T03:12:17.074Z,23.20
2023-02-13T03:14:45.208Z,24.17
2023-02-13T03:17:33.679Z,26.53
2023-02-13T03:20:30.847Z,27.27
2023-02-13T03:23:14.857Z,23.43
2023-02-13T03:26:21.666Z,26.17
2023-02-13T03:29:15.769Z,24.73
2023-02-13T03:31:53.889Z,27.77
2023-02-13T03:34:23.929Z,27.17
2023-02-13T03:37:17.769Z,25.57
2023-02-13T03:39:53.507Z,26.90
2023-02-13T03:42:28.064Z,27.27
2023-02-13T03:45:17.527Z,27.10
2023-02-13T03:47:46.361Z,28.30
2023-02-13T03:50:14.975Z,29.67
2023-02-13T03:52:49.348Z,28.67
2023-02-13T03:55:37.720Z,28.23
2023-02-13T03:58:27.279Z,24.20
2023-02-13T04:00:59.719Z,27.17
2023-02-13T04:03:32.733Z,27.10
2023-02-13T04:06:05.663Z,25.37
2023-02-13T04:08:33.306Z,28.33
2023-02-13T04:11:09.677Z,27.63
2023-02-13T04:13:43.734Z,26.87
2023-02-13T04:16:16.244Z,28.47
2023-02-13T04:18:45.478Z,26.47
2023-02-13T04:21:12.929Z,29.30
2023-02-13T04:23:40.398Z,26.73
2023-02-13T04:26:17.434Z,24.40
2023-02-13T04:28:44.932Z,27.30
2023-02-13T04:31:12.559Z,26.17
2023-02-13T04:33:40.129Z,26.63
2023-02-13T04:36:08.308Z,27.70
2023-02-13T04:38:35.753Z,27.87
2023-02-13T04:41:03.289Z,24.10
2023-02-13T04:43:32.056Z,25.23
2023-02-13T04:45:59.529Z,24.87
2023-02-13T04:48:27.166Z,25.37
2023-02-13T04:50:54.657Z,22.70
2023-02-13T04:53:22.130Z,21.87
2023-02-13T04:55:49.633Z,21.90
2023-02-13T04:58:17.093Z,22.40
2023-02-13T05:00:45.968Z,23.53
2023-02-13T05:03:14.511Z,22.80
2023-02-13T05:05:42.250Z,24.80
2023-02-13T05:08:10.116Z,25.90
2023-02-13T05:10:38.136Z,22.10
2023-02-13T05:13:05.670Z,24.33
2023-02-13T05:15:33.534Z,25.13
2023-02-13T05:18:02.345Z,23.03
2023-02-13T05:20:29.868Z,22.93
2023-02-13T05:23:14.764Z,23.80
2023-02-13T05:25:43.709Z,23.70
2023-02-13T05:28:31.381Z,23.80
2023-02-13T05:30:59.356Z,24.33
2023-02-13T05:33:28.496Z,25.63
2023-02-13T05:35:55.984Z,22.57
2023-02-13T05:38:23.457Z,24.63
2023-02-13T05:40:50.933Z,25.60
2023-02-13T05:43:18.469Z,21.90
2023-02-13T05:45:46.042Z,22.07
2023-02-13T05:48:13.550Z,22.93
2023-02-13T05:50:42.349Z,26.07
2023-02-13T05:53:09.856Z,25.20
2023-02-13T05:55:37.314Z,21.70
2023-02-13T05:58:04.793Z,21.40
2023-02-13T06:00:32.268Z,22.07
2023-02-13T06:02:59.773Z,23.83
2023-02-13T06:05:27.397Z,21.27
2023-02-13T06:07:56.211Z,21.23
2023-02-13T06:10:23.689Z,23.27
2023-02-13T06:12:51.171Z,21.23
2023-02-13T06:15:18.937Z,23.67
2023-02-13T06:17:46.434Z,22.57
2023-02-13T06:20:14.091Z,21.60
2023-02-13T06:22:41.549Z,23.70
2023-02-13T06:25:10.413Z,21.27
2023-02-13T06:27:37.898Z,21.17
2023-02-13T06:30:05.871Z,24.93
2023-02-13T06:32:33.346Z,24.83
2023-02-13T06:35:00.823Z,25.77
2023-02-13T06:37:28.530Z,24.50
2023-02-13T06:39:56.018Z,23.27
2023-02-13T06:42:24.843Z,19.83
2023-02-13T06:44:52.336Z,24.57
2023-02-13T06:47:19.797Z,29.97
2023-02-13T06:49:47.275Z,38.27
2023-02-13T06:52:14.758Z,34.17
2023-02-13T06:54:47.809Z,32.13
2023-02-13T06:57:16.049Z,25.47
2023-02-13T06:59:44.908Z,29.10
2023-02-13T07:02:13.369Z,26.73
2023-02-13T07:04:41.050Z,26.33
2023-02-13T07:07:08.526Z,30.87
2023-02-13T07:09:36.002Z,28.00
2023-02-13T07:12:04.660Z,30.23
2023-02-13T07:14:32.143Z,30.27
2023-02-13T07:17:01.020Z,26.00
2023-02-13T07:19:28.465Z,29.27
2023-02-13T07:21:55.910Z,28.67
2023-02-13T07:24:23.401Z,28.33
2023-02-13T07:26:50.890Z,33.67
2023-02-13T07:29:18.363Z,34.33
2023-02-13T07:31:45.843Z,31.57
2023-02-13T07:34:14.768Z,39.57
2023-02-13T07:36:42.200Z,35.07
2023-02-13T07:39:09.886Z,33.77
2023-02-13T07:41:37.365Z,36.73
2023-02-13T07:44:04.936Z,32.10
2023-02-13T07:46:32.392Z,36.27
2023-02-13T07:48:59.837Z,32.47
2023-02-13T07:51:29.103Z,33.73
2023-02-13T07:53:57.705Z,35.53
2023-02-13T07:56:25.318Z,32.37
2023-02-13T07:58:52.772Z,28.90
2023-02-13T08:01:20.665Z,31.90
2023-02-13T08:03:51.682Z,28.33
2023-02-13T08:06:20.221Z,29.67
2023-02-13T08:08:49.028Z,24.57
2023-02-13T08:11:42.876Z,24.83
2023-02-13T08:14:10.380Z,22.73
2023-02-13T08:16:37.873Z,20.33
2023-02-13T08:19:05.338Z,20.57
2023-02-13T08:21:32.930Z,22.27
2023-02-13T08:24:01.890Z,26.47
2023-02-13T08:26:31.892Z,28.20
2023-02-13T08:28:59.484Z,30.57
2023-02-13T08:31:27.393Z,24.47
2023-02-13T08:33:54.988Z,23.77
2023-02-13T08:36:22.440Z,22.40
2023-02-13T08:38:50.285Z,27.07
2023-02-13T08:41:20.868Z,27.50
2023-02-13T08:43:48.741Z,33.30
2023-02-13T08:46:16.350Z,30.60
2023-02-13T08:48:44.069Z,31.83
2023-02-13T08:51:13.704Z,29.47
2023-02-13T08:53:42.281Z,31.07
2023-02-13T08:56:10.572Z,30.00
2023-02-13T08:58:39.651Z,28.97
2023-02-13T09:01:08.728Z,28.93
2023-02-13T09:03:37.152Z,27.20
2023-02-13T09:06:05.147Z,26.37
2023-02-13T09:08:32.730Z,24.13
2023-02-13T09:11:02.331Z,23.77
2023-02-13T09:13:30.409Z,23.70
2023-02-13T09:16:01.475Z,22.97
2023-02-13T09:18:29.735Z,20.40
2023-02-13T09:21:01.309Z,22.00
2023-02-13T09:23:32.322Z,22.10
2023-02-13T09:26:01.626Z,22.90
2023-02-13T09:28:29.375Z,22.30
2023-02-13T09:30:57.030Z,21.13
2023-02-13T09:33:26.749Z,21.30
2023-02-13T09:35:54.193Z,30.20
2023-02-13T09:38:21.638Z,40.87
2023-02-13T09:40:52.444Z,52.27
2023-02-13T09:43:28.519Z,39.53
2023-02-13T09:45:59.913Z,15.93
2023-02-13T09:48:31.971Z,14.27
2023-02-13T09:51:00.376Z,15.00
2023-02-13T09:53:33.311Z,13.67
2023-02-13T09:56:10.087Z,12.57
2023-02-13T09:58:44.132Z,11.57
2023-02-13T10:01:21.096Z,12.35
2023-02-13T10:03:58.558Z,12.38
2023-02-13T10:06:31.810Z,12.17
2023-02-13T10:09:08.972Z,12.75
2023-02-13T10:11:54.418Z,12.57
2023-02-13T10:14:28.092Z,13.02
2023-02-13T10:17:00.859Z,12.70
2023-02-13T10:19:36.864Z,13.18
2023-02-13T10:22:08.529Z,12.27
2023-02-13T10:24:41.038Z,13.35
2023-02-13T10:27:20.817Z,13.07
2023-02-13T10:30:09.381Z,12.93
2023-02-13T10:32:43.956Z,13.75
2023-02-13T10:35:21.731Z,12.32
2023-02-13T10:37:51.982Z,12.35
2023-02-13T10:40:20.571Z,12.27
2023-02-13T10:42:57.519Z,12.75
2023-02-13T10:45:40.230Z,12.63
2023-02-13T10:48:20.605Z,12.65
2023-02-13T10:51:01.710Z,11.32
2023-02-13T10:53:44.269Z,11.20
2023-02-13T10:56:23.397Z,12.18
2023-02-13T10:59:05.815Z,12.48
2023-02-13T11:01:40.655Z,12.57
2023-02-13T11:04:10.702Z,12.30
2023-02-13T11:06:44.069Z,11.82
2023-02-13T11:09:13.343Z,11.88
2023-02-13T11:11:43.262Z,11.85
2023-02-13T11:14:16.247Z,11.25
2023-02-13T11:16:55.133Z,10.48
2023-02-13T11:19:27.733Z,11.45
2023-02-13T11:21:59.978Z,10.77
2023-02-13T11:24:29.441Z,10.65
2023-02-13T11:27:01.726Z,11.30
2023-02-13T11:29:31.441Z,11.25
2023-02-13T11:32:05.965Z,10.52
2023-02-13T11:34:35.128Z,10.25
2023-02-13T11:37:17.832Z,10.27
2023-02-13T11:39:46.876Z,11.10
2023-02-13T11:42:16.456Z,10.43
2023-02-13T11:44:50.285Z,11.07
2023-02-13T11:47:18.041Z,10.90
2023-02-13T11:49:48.077Z,11.57
2023-02-13T11:52:28.615Z,11.07
2023-02-13T11:54:58.852Z,9.85
2023-02-13T11:57:31.317Z,10.93
2023-02-13T12:00:00.150Z,10.27
2023-02-13T12:02:29.423Z,10.00
2023-02-13T12:05:16.337Z,10.15
2023-02-13T12:07:46.019Z,9.60
2023-02-13T12:10:22.217Z,10.23
2023-02-13T12:12:55.642Z,10.77
2023-02-13T12:15:25.556Z,9.20
2023-02-13T12:18:03.822Z,10.65
2023-02-13T12:20:41.051Z,9.55
2023-02-13T12:23:19.616Z,8.55
2023-02-13T12:26:00.138Z,9.85
2023-02-13T12:28:42.603Z,9.02
2023-02-13T12:31:35.586Z,9.55
2023-02-13T12:34:24.829Z,9.15
2023-02-13T12:37:04.624Z,8.88
2023-02-13T12:39:36.184Z,10.80
2023-02-13T12:42:20.812Z,9.65
2023-02-13T12:45:09.652Z,9.23
2023-02-13T12:47:46.343Z,10.07
2023-02-13T12:50:38.437Z,9.73
2023-02-13T12:53:21.139Z,7.43
2023-02-13T12:56:05.777Z,8.82
2023-02-13T12:58:46.568Z,8.63
2023-02-13T13:01:26.972Z,5.70
2023-02-13T13:04:09.370Z,4.45
2023-02-13T13:06:54.908Z,7.85
2023-02-13T13:09:58.280Z,7.18
2023-02-13T13:12:43.730Z,3.63
2023-02-13T13:15:19.900Z,4.50
2023-02-13T13:17:58.935Z,5.28
2023-02-13T13:20:44.268Z,5.53
2023-02-13T13:23:17.714Z,7.22
2023-02-13T13:25:51.983Z,5.97
2023-02-13T13:28:24.566Z,5.63
2023-02-13T13:30:54.037Z,5.43
2023-02-13T13:33:23.273Z,6.25
2023-02-13T13:35:59.686Z,7.15
2023-02-13T13:38:51.673Z,4.60
2023-02-13T13:41:29.493Z,4.47
2023-02-13T13:44:20.849Z,5.63
2023-02-13T13:46:56.680Z,5.00
2023-02-13T13:49:33.153Z,5.10
2023-02-13T13:52:12.545Z,5.13
2023-02-13T13:54:40.034Z,4.97
2023-02-13T13:57:09.268Z,5.13
2023-02-13T13:59:59.923Z,5.20
2023-02-13T14:02:38.517Z,5.10
2023-02-13T14:05:19.589Z,5.30
2023-02-13T14:07:48.646Z,5.93
2023-02-13T14:11:03.202Z,5.53
2023-02-13T14:13:34.064Z,5.93
2023-02-13T14:16:03.560Z,4.70
2023-02-13T14:18:32.238Z,5.28
2023-02-13T14:21:01.923Z,5.75
2023-02-13T14:23:34.597Z,4.93
2023-02-13T14:26:13.855Z,5.68
2023-02-13T14:28:43.307Z,4.65
2023-02-13T14:31:23.297Z,5.18
2023-02-13T14:33:57.102Z,5.00
2023-02-13T14:36:32.192Z,5.45
2023-02-13T14:39:02.275Z,4.75
2023-02-13T14:41:44.338Z,4.78
2023-02-13T14:44:19.017Z,4.57
2023-02-13T14:46:49.269Z,5.07
2023-02-13T14:49:20.246Z,5.50
2023-02-13T14:51:51.134Z,5.97
2023-02-13T14:54:26.836Z,5.70
2023-02-13T14:57:00.378Z,5.47
2023-02-13T14:59:32.641Z,6.27
2023-02-13T15:02:10.104Z,8.07
2023-02-13T15:04:42.726Z,10.73
2023-02-13T15:07:16.602Z,8.43
2023-02-13T15:09:49.237Z,7.13
2023-02-13T15:12:31.305Z,5.93
2023-02-13T15:15:01.221Z,7.67
2023-02-13T15:17:32.765Z,8.20
2023-02-13T15:20:09.785Z,6.30
2023-02-13T15:22:39.429Z,7.03
2023-02-13T15:25:09.270Z,5.63
2023-02-13T15:27:41.614Z,6.03
2023-02-13T15:30:21.771Z,5.77
2023-02-13T15:32:56.840Z,5.90
2023-02-13T15:35:26.868Z,6.60
2023-02-13T15:37:54.833Z,6.47
2023-02-13T15:40:25.836Z,7.33
2023-02-13T15:42:54.177Z,7.70
2023-02-13T15:45:23.733Z,8.80
2023-02-13T15:47:51.975Z,6.70
2023-02-13T15:50:25.356Z,7.97
2023-02-13T15:52:53.955Z,6.50
2023-02-13T15:55:24.294Z,6.80
2023-02-13T15:57:53.046Z,6.83
2023-02-13T16:00:26.228Z,6.10
2023-02-13T16:02:55.864Z,7.10
2023-02-13T16:05:38.893Z,7.17
2023-02-13T16:08:28.231Z,7.20
2023-02-13T16:11:21.961Z,6.93
2023-02-13T16:14:07.135Z,8.07
2023-02-13T16:16:37.349Z,7.90
2023-02-13T16:19:05.241Z,8.07
2023-02-13T16:21:35.846Z,7.53
2023-02-13T16:24:07.492Z,7.60
2023-02-13T16:26:36.326Z,8.23
2023-02-13T16:29:03.935Z,8.37
2023-02-13T16:31:31.515Z,8.27
2023-02-13T16:33:58.989Z,8.87
2023-02-13T16:36:29.820Z,8.80
2023-02-13T16:38:58.617Z,8.40
2023-02-13T16:41:34.054Z,8.73
2023-02-13T16:44:02.359Z,9.00
2023-02-13T16:46:37.248Z,9.00
2023-02-13T16:49:17.229Z,10.77
2023-02-13T16:51:47.760Z,9.77
2023-02-13T16:54:24.016Z,9.03
2023-02-13T16:56:53.620Z,9.33
2023-02-13T16:59:28.893Z,8.80
2023-02-13T17:02:15.431Z,8.70
2023-02-13T17:04:48.002Z,9.60
2023-02-13T17:07:18.769Z,9.90
2023-02-13T17:09:53.658Z,8.23
2023-02-13T17:12:21.615Z,8.23
2023-02-13T17:14:49.118Z,9.03
2023-02-13T17:17:18.922Z,9.20
2023-02-13T17:19:47.006Z,8.90
2023-02-13T17:22:23.442Z,10.60
2023-02-13T17:24:52.343Z,9.70
2023-02-13T17:27:22.425Z,8.90
2023-02-13T17:29:50.239Z,9.00
2023-02-13T17:32:20.250Z,9.20
2023-02-13T17:34:47.756Z,9.97
2023-02-13T17:37:19.376Z,8.87
2023-02-13T17:39:47.935Z,8.20
2023-02-13T17:42:21.010Z,7.63
2023-02-13T17:44:48.498Z,8.67
2023-02-13T17:47:15.981Z,7.83
2023-02-13T17:49:43.485Z,7.90
2023-02-13T17:52:16.688Z,7.87
2023-02-13T17:54:45.189Z,6.60
2023-02-13T17:57:13.413Z,7.60
2023-02-13T17:59:42.649Z,7.37
2023-02-13T18:02:19.195Z,8.73
2023-02-13T18:04:47.285Z,12.53
2023-02-13T18:07:16.653Z,9.13
2023-02-13T18:09:44.197Z,8.30
2023-02-13T18:12:14.819Z,6.77
2023-02-13T18:14:43.821Z,7.20
2023-02-13T18:17:11.767Z,8.47
2023-02-13T18:19:39.996Z,6.90
2023-02-13T18:22:08.761Z,6.80
2023-02-13T18:24:37.724Z,8.00
2023-02-13T18:27:07.333Z,7.97
2023-02-13T18:29:36.171Z,7.57
2023-02-13T18:32:08.091Z,7.70
2023-02-13T18:34:37.766Z,9.67
2023-02-13T18:37:06.952Z,9.80
2023-02-13T18:39:34.651Z,8.77
2023-02-13T18:42:02.493Z,9.50
2023-02-13T18:44:29.977Z,8.33
2023-02-13T18:46:57.766Z,11.07
2023-02-13T18:49:26.952Z,8.77
2023-02-13T18:51:54.478Z,8.50
2023-02-13T18:54:22.164Z,9.73
2023-02-13T18:56:49.966Z,10.93
2023-02-13T18:59:18.485Z,9.13
2023-02-13T19:01:46.289Z,12.80
2023-02-13T19:04:13.896Z,9.63
2023-02-13T19:06:44.016Z,10.07
2023-02-13T19:09:11.996Z,9.63
2023-02-13T19:11:40.752Z,9.27
2023-02-13T19:14:08.585Z,10.00
2023-02-13T19:16:36.795Z,10.90
2023-02-13T19:19:06.188Z,10.63
2023-02-13T19:21:36.166Z,10.70
2023-02-13T19:24:07.673Z,11.50
2023-02-13T19:26:35.697Z,10.40
2023-02-13T19:29:03.238Z,10.97
2023-02-13T19:31:32.629Z,10.63
2023-02-13T19:34:01.348Z,12.73
2023-02-13T19:36:29.917Z,11.57
2023-02-13T19:38:59.544Z,10.60
2023-02-13T19:41:29.020Z,11.27
2023-02-13T19:43:57.193Z,13.93
2023-02-13T19:46:27.727Z,14.20
2023-02-13T19:48:55.413Z,14.87
2023-02-13T19:51:25.118Z,14.90
2023-02-13T19:53:56.570Z,15.43
2023-02-13T19:56:24.439Z,16.40
2023-02-13T19:58:53.259Z,16.83
2023-02-13T20:01:22.610Z,17.27
2023-02-13T20:03:50.207Z,16.53
2023-02-13T20:06:19.832Z,17.13
2023-02-13T20:08:47.733Z,17.10
2023-02-13T20:11:17.036Z,17.13
2023-02-13T20:13:44.789Z,16.53
2023-02-13T20:16:16.339Z,17.37
2023-02-13T20:18:44.126Z,17.03
2023-02-13T20:21:13.814Z,18.43
2023-02-13T20:23:41.992Z,19.13
2023-02-13T20:26:13.658Z,19.87
2023-02-13T20:28:42.471Z,19.50
2023-02-13T20:31:11.646Z,18.43
2023-02-13T20:33:41.183Z,19.43
2023-02-13T20:36:10.360Z,19.40
2023-02-13T20:38:37.872Z,18.07
2023-02-13T20:41:09.567Z,18.63
2023-02-13T20:43:37.993Z,18.93
2023-02-13T20:46:05.930Z,18.37
2023-02-13T20:48:35.848Z,19.37
2023-02-13T20:51:06.898Z,19.27
2023-02-13T20:53:34.855Z,19.77
2023-02-13T20:56:04.743Z,19.17
2023-02-13T20:58:32.621Z,19.03
2023-02-13T21:01:01.007Z,25.57
2023-02-13T21:03:28.774Z,22.10
2023-02-13T21:05:56.299Z,23.43
2023-02-13T21:08:25.111Z,24.20
2023-02-13T21:10:52.575Z,24.33
2023-02-13T21:13:20.113Z,22.40
2023-02-13T21:15:50.487Z,23.63
2023-02-13T21:18:19.800Z,23.27
2023-02-13T21:20:49.805Z,20.47
2023-02-13T21:23:17.281Z,20.10
2023-02-13T21:25:46.135Z,19.90
2023-02-13T21:28:13.626Z,21.60
2023-02-13T21:30:41.152Z,20.97
2023-02-13T21:33:08.641Z,21.07
2023-02-13T21:35:36.190Z,23.80
2023-02-13T21:38:03.643Z,22.97
2023-02-13T21:40:31.131Z,20.83
2023-02-13T21:42:59.950Z,21.57
2023-02-13T21:45:27.519Z,21.90
2023-02-13T21:47:55.742Z,22.00
2023-02-13T21:50:23.601Z,22.77
2023-02-13T21:52:51.100Z,22.20
2023-02-13T21:55:18.757Z,24.00
2023-02-13T21:57:46.230Z,23.50
2023-02-13T22:00:16.575Z,21.87
2023-02-13T22:02:44.069Z,23.20
2023-02-13T22:05:11.584Z,23.43
2023-02-13T22:07:53.013Z,23.70
2023-02-13T22:10:20.477Z,23.23
2023-02-13T22:12:51.947Z,22.90
2023-02-13T22:15:20.871Z,23.77
2023-02-13T22:17:48.437Z,23.47
2023-02-13T22:20:16.085Z,24.00
2023-02-13T22:22:43.679Z,23.63
2023-02-13T22:25:11.391Z,22.57
2023-02-13T22:27:38.874Z,23.23
2023-02-13T22:30:08.931Z,25.83
2023-02-13T22:32:39.714Z,22.97
2023-02-13T22:35:09.447Z,21.57
2023-02-13T22:37:37.486Z,23.07
2023-02-13T22:40:06.530Z,23.17
2023-02-13T22:42:33.986Z,23.20
2023-02-13T22:45:01.459Z,24.27
2023-02-13T22:47:30.097Z,22.37
2023-02-13T22:49:58.903Z,21.97
2023-02-13T22:52:26.337Z,24.10
2023-02-13T22:54:53.791Z,23.37
2023-02-13T22:57:21.227Z,21.83
2023-02-13T22:59:48.686Z,22.90
2023-02-13T23:02:16.136Z,21.43
2023-02-13T23:04:43.714Z,21.47
2023-02-13T23:07:15.036Z,22.73
2023-02-13T23:09:42.480Z,22.43
2023-02-13T23:12:27.545Z,23.10
2023-02-13T23:14:56.665Z,22.57
2023-02-13T23:17:42.006Z,21.87
2023-02-13T23:20:10.814Z,21.83
2023-02-13T23:22:39.657Z,21.87
2023-02-13T23:25:07.892Z,22.97
2023-02-13T23:27:36.856Z,20.90
2023-02-13T23:30:05.921Z,20.97
2023-02-13T23:32:33.477Z,20.97
2023-02-13T23:35:01.099Z,20.57
2023-02-13T23:37:28.714Z,20.87
2023-02-13T23:39:57.546Z,22.07
2023-02-13T23:42:25.008Z,22.57
2023-02-13T23:44:52.478Z,21.03
2023-02-13T23:47:19.957Z,23.00
2023-02-13T23:49:47.438Z,22.70
2023-02-13T23:52:14.906Z,22.07
2023-02-13T23:54:42.385Z,22.60
2023-02-13T23:57:11.824Z,23.00
2023-02-13T23:59:39.332Z,22.33
